Torrance, CA

8:37 AM PDT on April 25, 2017 (GMT -0700)
Hickory Park neighborhood | | Change Station
Active Advisory: High Surf Advisory Active Notice: High Surf Advisory

Elev 95 ft 33.82 °N, 118.33 °W | Updated 7 minutes ago

Mostly Cloudy
Mostly Cloudy
66.0 °F
Feels Like 66.0 °F
N
0.0
Wind Variable Wind from West
Gusts 0.0 mph

Today
High -- | Low -- °F
--% Chance of Precip.
Yesterday
High -- | Low -- °F
Precip. -- in
Pressure 29.89 in
Visibility 10.0 miles
Clouds Few 4000 ft
Mostly Cloudy 20000 ft
Dew Point 24 °F
Humidity 20%
Rainfall 0.00 in
Snow Depth Not available.
6:10 AM 7:32 PM
Waning Crescent, 1% visible
METAR KTOA 251452Z 28010KT 10SM FEW040 BKN200 16/10 A2989
Pressure 29.89 in
Visibility 10.0 miles
Clouds Few 4000 ft
Mostly Cloudy 20000 ft
Dew Point 24 °F
Humidity 20%
Rainfall 0.00 in
Snow Depth Not available.
6:10 AM 7:32 PM
Waning Crescent, 1% visible
METAR KTOA 251452Z 28010KT 10SM FEW040 BKN200 16/10 A2989

Get Your Daily Forecast Email!

Thanks for signing up!

Be on the lookout for a verification email in your inbox.

You'll start receiving severe weather alerts in your inbox..

×

10-Day Weather Forecast

Almanac

Astronomy

Apr. 25, 2017 Rise Set
Actual Time
Civil Twilight
Nautical Twilight
Astronomical Twilight
Moon
Length of Visible Light
Length of Day
Tomorrow will be .
, % of the Moon is Illuminated

Today's Extremes

State Highs State Lows

Community

WunderPhotos

WunderBlog® & News

Nearby

Air Quality

  Air Quality AQ Index Pollutant
Not available.

Snow Depth

Station Depth Elevation

Earthquake Activity

City Distance Mag. Time & Date
Minimum magnitude displayed is 2.5.

Coastal Water Temperatures

Place Temperature

Stations

Nearby Weather Stations

Station Location Temp. Windchill Dew Point Humidity Wind Precip. Elev Updated Type
                   

Watches & Warnings

High Surf Advisory
Issued: 9:27 PM PDT Apr. 24, 2017 – National Weather Service

... High surf advisory now in effect until 9 am PDT Tuesday...

* surf... surf of 4 to 7 ft will persist through mid morning
Tuesday... then surf will slowly decrease.

* Impacts... there is an increased risk of ocean drowning. Rip
currents can pull swimmers and surfers out to sea. Waves can
wash people off beaches and rocks... and capsize small boats
nearshore.

* Locations... highest surf will be on west facing beaches.

Precautionary/preparedness actions...

A high surf advisory means that high surf will affect beaches in
the advisory area... producing localized beach erosion and
dangerous swimming conditions. Swim near a lifeguard. If caught
in a rip current, relax and float. Don't swim against the
current. If able, swim in a direction following the shoreline. If
unable to escape, face the shore and call or wave for help.